createdAt,value
2023-04-01T00:00:33.420Z,44.39
2023-04-01T00:03:00.286Z,44.28
2023-04-01T00:05:27.181Z,44.24
2023-04-01T00:07:54.022Z,44.53
2023-04-01T00:10:20.962Z,44.46
2023-04-01T00:12:49.126Z,44.33
2023-04-01T00:15:15.945Z,44.43
2023-04-01T00:17:42.786Z,44.35
2023-04-01T00:20:10.148Z,44.17
2023-04-01T00:22:37.007Z,44.32
2023-04-01T00:25:04.154Z,44.29
2023-04-01T00:27:30.995Z,44.21
2023-04-01T00:29:59.198Z,44.46
2023-04-01T00:32:26.133Z,44.49
2023-04-01T00:34:53.444Z,44.23
2023-04-01T00:37:20.465Z,44.41
2023-04-01T00:39:47.682Z,44.13
2023-04-01T00:42:14.567Z,44.00
2023-04-01T00:44:42.013Z,44.10
2023-04-01T00:47:10.223Z,44.11
2023-04-01T00:49:40.080Z,43.99
2023-04-01T00:52:08.378Z,44.07
2023-04-01T00:54:36.822Z,43.68
2023-04-01T00:57:06.755Z,43.75
2023-04-01T00:59:35.048Z,43.97
2023-04-01T01:02:02.379Z,43.82
2023-04-01T01:04:31.820Z,43.93
2023-04-01T01:07:04.119Z,43.75
2023-04-01T01:09:35.288Z,43.89
2023-04-01T01:12:06.831Z,43.91
2023-04-01T01:14:40.194Z,43.97
2023-04-01T01:17:09.930Z,44.03
2023-04-01T01:19:49.302Z,43.86
2023-04-01T01:22:23.009Z,43.89
2023-04-01T01:24:56.988Z,43.93
2023-04-01T01:27:24.181Z,43.85
2023-04-01T01:30:24.233Z,43.71
2023-04-01T01:33:06.559Z,43.42
2023-04-01T01:35:37.697Z,43.48
2023-04-01T01:38:06.737Z,43.56
2023-04-01T01:40:35.320Z,43.33
2023-04-01T01:43:05.115Z,43.70
2023-04-01T01:45:34.185Z,43.55
2023-04-01T01:48:02.960Z,43.30
2023-04-01T01:50:29.962Z,43.43
2023-04-01T01:53:08.950Z,43.34
2023-04-01T01:55:36.829Z,43.46
2023-04-01T01:58:12.957Z,43.29
2023-04-01T02:00:40.272Z,43.51
2023-04-01T02:03:07.187Z,43.36
2023-04-01T02:05:34.840Z,43.48
2023-04-01T02:08:03.785Z,43.54
2023-04-01T02:10:34.958Z,43.59
2023-04-01T02:13:05.495Z,43.73
2023-04-01T02:15:34.415Z,43.60
2023-04-01T02:18:02.129Z,43.43
2023-04-01T02:20:30.476Z,43.39
2023-04-01T02:22:58.649Z,43.17
2023-04-01T02:25:27.813Z,43.21
2023-04-01T02:27:57.772Z,43.26
2023-04-01T02:30:26.483Z,43.14
2023-04-01T02:32:54.097Z,43.08
2023-04-01T02:35:21.075Z,43.12
2023-04-01T02:37:50.383Z,43.14
2023-04-01T02:40:17.821Z,43.01
2023-04-01T02:42:44.807Z,42.94
2023-04-01T02:45:13.991Z,43.03
2023-04-01T02:47:41.168Z,42.95
2023-04-01T02:50:08.814Z,43.17
2023-04-01T02:52:35.723Z,43.16
2023-04-01T02:55:03.022Z,43.31
2023-04-01T02:57:29.941Z,43.29
2023-04-01T02:59:56.875Z,43.11
2023-04-01T03:02:25.099Z,43.10
2023-04-01T03:04:52.106Z,43.01
2023-04-01T03:07:19.233Z,43.10
2023-04-01T03:09:46.069Z,42.90
2023-04-01T03:12:13.369Z,43.01
2023-04-01T03:14:40.218Z,42.75
2023-04-01T03:17:07.065Z,42.80
2023-04-01T03:19:35.216Z,42.92
2023-04-01T03:22:02.070Z,42.85
2023-04-01T03:24:28.886Z,42.88
2023-04-01T03:26:55.688Z,42.94
2023-04-01T03:29:22.511Z,42.99
2023-04-01T03:31:49.296Z,42.91
2023-04-01T03:34:16.115Z,42.87
2023-04-01T03:36:44.375Z,42.90
2023-04-01T03:39:11.208Z,42.81
2023-04-01T03:41:38.242Z,43.08
2023-04-01T03:44:05.084Z,42.97
2023-04-01T03:46:31.952Z,43.07
2023-04-01T03:48:58.794Z,43.10
2023-04-01T03:51:25.615Z,43.04
2023-04-01T03:53:53.816Z,42.93
2023-04-01T03:56:20.622Z,42.77
2023-04-01T03:58:47.480Z,42.83
2023-04-01T04:01:15.044Z,42.77
2023-04-01T04:03:41.976Z,42.69
2023-04-01T04:06:11.464Z,42.50
2023-04-01T04:08:38.262Z,42.72
2023-04-01T04:11:06.454Z,42.44
2023-04-01T04:13:33.287Z,42.64
2023-04-01T04:16:00.195Z,42.70
2023-04-01T04:18:27.061Z,42.72
2023-04-01T04:20:53.957Z,42.60
2023-04-01T04:23:21.098Z,42.55
2023-04-01T04:25:54.756Z,42.35
2023-04-01T04:28:23.013Z,42.46
2023-04-01T04:30:49.842Z,42.63
2023-04-01T04:33:16.925Z,42.72
2023-04-01T04:35:43.746Z,42.94
2023-04-01T04:38:10.617Z,43.05
2023-04-01T04:40:37.578Z,43.91
2023-04-01T04:43:04.461Z,42.71
2023-04-01T04:45:33.338Z,43.45
2023-04-01T04:48:00.384Z,41.02
2023-04-01T04:50:27.208Z,40.79
2023-04-01T04:52:54.017Z,40.46
2023-04-01T04:55:21.131Z,40.70
2023-04-01T04:57:47.928Z,40.67
2023-04-01T05:00:14.944Z,40.63
2023-04-01T05:02:43.196Z,40.83
2023-04-01T05:05:10.374Z,40.77
2023-04-01T05:07:37.302Z,40.89
2023-04-01T05:10:04.509Z,41.21
2023-04-01T05:12:31.299Z,41.22
2023-04-01T05:14:58.124Z,41.54
2023-04-01T05:17:24.979Z,41.76
2023-04-01T05:19:53.235Z,41.51
2023-04-01T05:22:20.028Z,41.69
2023-04-01T05:24:47.004Z,41.65
2023-04-01T05:27:13.810Z,41.80
2023-04-01T05:29:40.619Z,42.12
2023-04-01T05:32:07.640Z,42.11
2023-04-01T05:34:34.458Z,41.88
2023-04-01T05:37:02.650Z,41.81
2023-04-01T05:39:29.497Z,41.56
2023-04-01T05:41:56.293Z,41.12
2023-04-01T05:44:23.097Z,41.75
2023-04-01T05:46:49.908Z,41.19
2023-04-01T05:49:16.853Z,41.48
2023-04-01T05:51:43.663Z,41.59
2023-04-01T05:54:11.864Z,41.76
2023-04-01T05:56:38.675Z,41.48
2023-04-01T05:59:05.517Z,41.52
2023-04-01T06:01:32.361Z,41.66
2023-04-01T06:03:59.468Z,41.63
2023-04-01T06:06:27.278Z,41.55
2023-04-01T06:08:54.412Z,41.42
2023-04-01T06:11:29.781Z,41.82
2023-04-01T06:14:01.891Z,41.69
2023-04-01T06:16:32.618Z,41.45
2023-04-01T06:19:06.327Z,41.38
2023-04-01T06:21:43.503Z,41.21
2023-04-01T06:24:19.060Z,41.21
2023-04-01T06:26:52.753Z,41.37
2023-04-01T06:29:30.036Z,41.26
2023-04-01T06:32:02.679Z,41.22
2023-04-01T06:34:39.898Z,41.15
2023-04-01T06:37:19.358Z,41.14
2023-04-01T06:39:58.447Z,41.14
2023-04-01T06:42:35.977Z,41.80
2023-04-01T06:45:09.794Z,41.69
2023-04-01T06:47:44.023Z,41.65
2023-04-01T06:50:18.740Z,41.78
2023-04-01T06:52:52.252Z,41.80
2023-04-01T06:55:25.669Z,42.17
2023-04-01T06:57:56.099Z,42.05
2023-04-01T07:00:26.487Z,42.02
2023-04-01T07:02:55.990Z,41.63
2023-04-01T07:05:23.854Z,41.48
2023-04-01T07:07:52.949Z,41.49
2023-04-01T07:10:21.402Z,41.65
2023-04-01T07:12:52.382Z,41.63
2023-04-01T07:15:23.118Z,41.38
2023-04-01T07:17:53.615Z,41.43
2023-04-01T07:20:22.056Z,41.39
2023-04-01T07:22:50.117Z,41.58
2023-04-01T07:25:18.076Z,41.48
2023-04-01T07:27:45.603Z,41.43
2023-04-01T07:30:15.172Z,41.22
2023-04-01T07:32:45.485Z,41.56
2023-04-01T07:35:22.059Z,41.40
2023-04-01T07:37:56.791Z,41.53
2023-04-01T07:40:27.811Z,41.63
2023-04-01T07:43:04.901Z,41.70
2023-04-01T07:45:35.969Z,41.78
2023-04-01T07:48:12.400Z,41.74
2023-04-01T07:50:42.241Z,41.65
2023-04-01T07:53:15.914Z,41.49
2023-04-01T07:55:46.468Z,41.44
2023-04-01T07:58:17.423Z,41.35
2023-04-01T08:00:47.786Z,41.05
2023-04-01T08:03:25.344Z,41.30
2023-04-01T08:05:55.961Z,41.29
2023-04-01T08:08:30.229Z,41.51
2023-04-01T08:10:58.749Z,41.81
2023-04-01T08:13:31.073Z,42.04
2023-04-01T08:16:04.596Z,41.42
2023-04-01T08:18:40.112Z,40.27
2023-04-01T08:21:11.204Z,40.96
2023-04-01T08:23:39.515Z,39.74
2023-04-01T08:26:10.804Z,39.86
2023-04-01T08:28:40.318Z,39.09
2023-04-01T08:31:09.931Z,39.44
2023-04-01T08:33:39.838Z,39.58
2023-04-01T08:36:08.872Z,38.84
2023-04-01T08:38:38.877Z,38.05
2023-04-01T08:41:17.205Z,39.01
2023-04-01T08:43:52.465Z,37.50
2023-04-01T08:46:29.290Z,38.28
2023-04-01T08:49:04.148Z,38.96
2023-04-01T08:52:03.992Z,37.52
2023-04-01T08:54:43.413Z,37.02
2023-04-01T08:57:13.638Z,36.75
2023-04-01T08:59:50.299Z,37.31
2023-04-01T09:02:38.004Z,37.73
2023-04-01T09:05:26.010Z,36.67
2023-04-01T09:07:58.821Z,36.18
2023-04-01T09:10:35.711Z,36.61
2023-04-01T09:13:19.193Z,37.03
2023-04-01T09:16:03.152Z,37.41
2023-04-01T09:18:39.552Z,37.45
2023-04-01T09:21:18.286Z,37.36
2023-04-01T09:23:58.464Z,37.42
2023-04-01T09:26:35.968Z,37.40
2023-04-01T09:29:06.728Z,36.84
2023-04-01T09:31:46.078Z,36.56
2023-04-01T09:34:23.295Z,36.73
2023-04-01T09:36:59.979Z,36.88
2023-04-01T09:39:37.574Z,36.56
2023-04-01T09:42:14.645Z,36.50
2023-04-01T09:44:45.182Z,36.82
2023-04-01T09:47:17.973Z,37.02
2023-04-01T09:49:56.155Z,37.04
2023-04-01T09:52:26.886Z,37.05
2023-04-01T09:55:00.779Z,37.41
2023-04-01T09:57:58.264Z,37.27
2023-04-01T10:00:40.008Z,37.71
2023-04-01T10:03:29.691Z,37.77
2023-04-01T10:06:14.847Z,38.04
2023-04-01T10:08:51.560Z,38.04
2023-04-01T10:11:39.093Z,38.17
2023-04-01T10:14:22.398Z,37.94
2023-04-01T10:17:02.400Z,38.06
2023-04-01T10:19:44.163Z,38.02
2023-04-01T10:22:18.646Z,38.13
2023-04-01T10:25:06.280Z,38.38
2023-04-01T10:27:57.092Z,38.26
2023-04-01T10:30:41.037Z,38.49
2023-04-01T10:33:27.324Z,38.27
2023-04-01T10:36:08.870Z,38.29
2023-04-01T10:38:47.675Z,38.29
2023-04-01T10:41:29.420Z,38.49
2023-04-01T10:44:14.928Z,38.26
2023-04-01T10:46:57.168Z,38.57
2023-04-01T10:49:37.666Z,38.61
2023-04-01T10:52:34.135Z,38.54
2023-04-01T10:55:13.538Z,38.55
2023-04-01T10:57:51.275Z,38.46
2023-04-01T11:00:26.818Z,38.61
2023-04-01T11:03:12.565Z,38.42
2023-04-01T11:05:58.479Z,38.52
2023-04-01T11:08:55.229Z,38.61
2023-04-01T11:11:33.877Z,38.33
2023-04-01T11:14:17.668Z,38.60
2023-04-01T11:16:54.897Z,38.61
2023-04-01T11:19:41.785Z,38.72
2023-04-01T11:22:18.083Z,38.57
2023-04-01T11:25:02.926Z,38.80
2023-04-01T11:27:40.126Z,38.66
2023-04-01T11:30:12.049Z,38.51
2023-04-01T11:32:43.107Z,38.52
2023-04-01T11:35:24.871Z,38.53
2023-04-01T11:37:54.282Z,38.74
2023-04-01T11:40:23.970Z,38.80
2023-04-01T11:42:55.211Z,38.67
2023-04-01T11:45:30.112Z,38.88
2023-04-01T11:48:09.142Z,38.94
2023-04-01T11:50:43.187Z,39.06
2023-04-01T11:53:16.494Z,40.35
2023-04-01T11:55:50.476Z,40.26
2023-04-01T11:58:24.915Z,40.90
2023-04-01T12:01:00.135Z,41.07
2023-04-01T12:03:37.913Z,40.20
2023-04-01T12:06:11.238Z,39.72
2023-04-01T12:08:43.657Z,40.03
2023-04-01T12:11:15.389Z,39.64
2023-04-01T12:13:48.336Z,39.73
2023-04-01T12:16:27.154Z,39.67
2023-04-01T12:18:56.893Z,39.76
2023-04-01T12:21:26.125Z,39.51
2023-04-01T12:24:04.151Z,39.47
2023-04-01T12:26:41.554Z,39.58
2023-04-01T12:29:20.091Z,39.50
2023-04-01T12:31:53.758Z,39.49
2023-04-01T12:34:34.981Z,39.41
2023-04-01T12:37:09.300Z,39.40
2023-04-01T12:39:45.302Z,39.22
2023-04-01T12:42:16.894Z,39.22
2023-04-01T12:44:53.712Z,39.41
2023-04-01T12:47:47.718Z,39.47
2023-04-01T12:50:24.915Z,39.43
2023-04-01T12:53:00.554Z,39.43
2023-04-01T12:55:38.700Z,39.22
2023-04-01T12:58:23.930Z,39.16
2023-04-01T13:01:04.176Z,39.40
2023-04-01T13:03:47.528Z,39.63
2023-04-01T13:06:29.308Z,39.50
2023-04-01T13:09:02.626Z,39.63
2023-04-01T13:11:37.697Z,39.49
2023-04-01T13:14:29.123Z,39.37
2023-04-01T13:17:07.950Z,39.30
2023-04-01T13:19:38.581Z,39.30
2023-04-01T13:22:08.085Z,39.56
2023-04-01T13:24:42.578Z,39.23
2023-04-01T13:27:15.546Z,39.24
2023-04-01T13:29:46.682Z,39.55
2023-04-01T13:32:20.072Z,39.32
2023-04-01T13:34:57.873Z,39.29
2023-04-01T13:37:31.166Z,39.50
2023-04-01T13:40:03.870Z,39.40
2023-04-01T13:42:32.432Z,39.38
2023-04-01T13:45:02.647Z,39.71
2023-04-01T13:47:48.483Z,39.69
2023-04-01T13:50:33.372Z,39.87
2023-04-01T13:53:18.150Z,39.94
2023-04-01T13:55:52.634Z,39.80
2023-04-01T13:58:43.668Z,39.83
2023-04-01T14:01:13.940Z,39.64
2023-04-01T14:03:57.674Z,39.70
2023-04-01T14:06:29.325Z,39.71
2023-04-01T14:09:14.645Z,39.65
2023-04-01T14:11:46.121Z,39.54
2023-04-01T14:14:20.135Z,39.56
2023-04-01T14:16:58.518Z,38.98
2023-04-01T14:19:32.971Z,39.42
2023-04-01T14:22:06.388Z,39.64
2023-04-01T14:24:46.789Z,39.58
2023-04-01T14:27:20.127Z,39.54
2023-04-01T14:29:52.962Z,39.55
2023-04-01T14:32:29.826Z,39.63
2023-04-01T14:35:04.341Z,39.63
2023-04-01T14:37:49.090Z,39.65
2023-04-01T14:40:27.074Z,39.77
2023-04-01T14:43:02.251Z,39.67
2023-04-01T14:45:46.731Z,39.64
2023-04-01T14:48:22.417Z,39.70
2023-04-01T14:50:52.634Z,39.56
2023-04-01T14:53:27.258Z,39.56
2023-04-01T14:55:55.296Z,39.58
2023-04-01T14:58:22.914Z,39.48
2023-04-01T15:01:11.864Z,39.32
2023-04-01T15:03:41.304Z,39.46
2023-04-01T15:06:26.741Z,39.29
2023-04-01T15:09:01.894Z,39.47
2023-04-01T15:11:37.023Z,39.61
2023-04-01T15:14:19.015Z,39.78
2023-04-01T15:16:51.557Z,40.08
2023-04-01T15:19:24.809Z,40.07
2023-04-01T15:21:58.950Z,40.15
2023-04-01T15:24:36.895Z,40.03
2023-04-01T15:27:13.847Z,40.18
2023-04-01T15:29:58.444Z,39.92
2023-04-01T15:32:30.375Z,39.79
2023-04-01T15:34:59.212Z,39.69
2023-04-01T15:37:31.791Z,39.92
2023-04-01T15:40:06.401Z,39.66
2023-04-01T15:42:42.830Z,39.84
2023-04-01T15:45:17.374Z,39.63
2023-04-01T15:47:46.962Z,39.73
2023-04-01T15:50:34.620Z,39.60
2023-04-01T15:53:08.994Z,39.77
2023-04-01T15:55:42.649Z,40.21
2023-04-01T15:58:22.077Z,40.03
2023-04-01T16:00:50.638Z,40.45
2023-04-01T16:03:35.295Z,40.75
2023-04-01T16:06:11.352Z,40.58
2023-04-01T16:09:00.187Z,40.64
2023-04-01T16:11:34.669Z,40.56
2023-04-01T16:14:08.810Z,40.49
2023-04-01T16:16:44.850Z,40.36
2023-04-01T16:19:25.088Z,40.31
2023-04-01T16:21:54.279Z,40.02
2023-04-01T16:24:25.306Z,40.05
2023-04-01T16:26:56.084Z,40.06
2023-04-01T16:29:27.707Z,39.91
2023-04-01T16:31:58.254Z,40.18
2023-04-01T16:34:28.317Z,39.98
2023-04-01T16:37:01.103Z,39.77
2023-04-01T16:39:30.797Z,39.99
2023-04-01T16:42:10.152Z,39.82
2023-04-01T16:44:47.972Z,40.30
2023-04-01T16:47:18.099Z,40.72
2023-04-01T16:49:47.637Z,40.31
2023-04-01T16:52:15.947Z,40.47
2023-04-01T16:54:45.516Z,40.65
2023-04-01T16:57:30.175Z,40.71
2023-04-01T17:00:01.771Z,40.78
2023-04-01T17:02:31.172Z,40.57
2023-04-01T17:05:01.467Z,40.63
2023-04-01T17:07:35.758Z,40.41
2023-04-01T17:10:09.150Z,40.40
2023-04-01T17:12:40.682Z,40.22
2023-04-01T17:15:17.514Z,40.34
2023-04-01T17:17:47.952Z,40.20
2023-04-01T17:20:19.984Z,40.21
2023-04-01T17:22:50.898Z,40.14
2023-04-01T17:25:31.984Z,40.19
2023-04-01T17:28:00.608Z,40.64
2023-04-01T17:30:34.163Z,40.27
2023-04-01T17:33:24.912Z,40.27
2023-04-01T17:35:56.458Z,40.11
2023-04-01T17:38:28.357Z,40.09
2023-04-01T17:41:00.636Z,40.23
2023-04-01T17:43:32.366Z,40.25
2023-04-01T17:46:03.539Z,40.18
2023-04-01T17:48:39.294Z,40.31
2023-04-01T17:51:14.909Z,40.27
2023-04-01T17:53:46.396Z,40.38
2023-04-01T17:56:19.005Z,40.55
2023-04-01T17:58:47.299Z,40.26
2023-04-01T18:01:22.307Z,40.31
2023-04-01T18:03:59.298Z,40.62
2023-04-01T18:06:30.559Z,40.49
2023-04-01T18:08:59.809Z,40.29
2023-04-01T18:11:34.910Z,40.20
2023-04-01T18:14:15.674Z,40.79
2023-04-01T18:16:52.093Z,40.80
2023-04-01T18:19:24.628Z,41.46
2023-04-01T18:21:53.329Z,41.40
2023-04-01T18:24:22.789Z,40.93
2023-04-01T18:26:51.219Z,40.72
2023-04-01T18:29:24.764Z,40.71
2023-04-01T18:31:56.178Z,40.81
2023-04-01T18:34:37.448Z,40.82
2023-04-01T18:37:15.865Z,40.82
2023-04-01T18:39:47.403Z,41.20
2023-04-01T18:42:17.426Z,41.01
2023-04-01T18:44:46.897Z,41.47
2023-04-01T18:47:23.971Z,41.45
2023-04-01T18:49:56.491Z,41.38
2023-04-01T18:52:24.982Z,41.38
2023-04-01T18:55:13.933Z,41.04
2023-04-01T18:57:41.982Z,41.15
2023-04-01T19:00:16.064Z,40.96
2023-04-01T19:02:49.438Z,40.96
2023-04-01T19:05:19.329Z,40.69
2023-04-01T19:07:47.896Z,40.57
2023-04-01T19:10:21.938Z,40.55
2023-04-01T19:12:53.707Z,40.51
2023-04-01T19:15:27.147Z,40.28
2023-04-01T19:18:03.130Z,40.44
2023-04-01T19:20:33.427Z,40.18
2023-04-01T19:23:13.298Z,40.50
2023-04-01T19:25:41.138Z,40.29
2023-04-01T19:28:21.552Z,40.11
2023-04-01T19:30:52.562Z,40.14
2023-04-01T19:33:27.730Z,40.23
2023-04-01T19:36:00.311Z,40.36
2023-04-01T19:38:31.109Z,40.59
2023-04-01T19:41:02.501Z,40.58
2023-04-01T19:43:40.357Z,40.39
2023-04-01T19:46:13.260Z,40.49
2023-04-01T19:48:50.041Z,40.51
2023-04-01T19:51:21.043Z,40.22
2023-04-01T19:53:53.211Z,40.07
2023-04-01T19:56:21.699Z,40.29
2023-04-01T19:58:52.748Z,40.10
2023-04-01T20:01:25.498Z,40.29
2023-04-01T20:03:58.917Z,40.23
2023-04-01T20:06:30.472Z,40.26
2023-04-01T20:09:26.170Z,40.43
2023-04-01T20:11:56.733Z,40.36
2023-04-01T20:14:28.596Z,40.39
2023-04-01T20:16:59.737Z,40.26
2023-04-01T20:19:30.276Z,40.18
2023-04-01T20:21:58.670Z,40.38
2023-04-01T20:24:29.204Z,40.99
2023-04-01T20:27:04.192Z,40.93
2023-04-01T20:29:51.758Z,40.71
2023-04-01T20:32:24.888Z,40.45
2023-04-01T20:35:06.640Z,40.61
2023-04-01T20:37:39.773Z,40.35
2023-04-01T20:40:18.618Z,40.42
2023-04-01T20:43:01.705Z,40.74
2023-04-01T20:45:34.799Z,40.45
2023-04-01T20:48:25.576Z,40.50
2023-04-01T20:50:54.500Z,40.45
2023-04-01T20:53:29.061Z,40.64
2023-04-01T20:56:15.886Z,40.42
2023-04-01T20:58:48.637Z,40.56
2023-04-01T21:01:20.546Z,40.44
2023-04-01T21:03:51.922Z,40.77
2023-04-01T21:06:38.819Z,40.58
2023-04-01T21:09:17.026Z,40.76
2023-04-01T21:11:49.565Z,40.41
2023-04-01T21:14:33.796Z,40.36
2023-04-01T21:17:09.395Z,40.70
2023-04-01T21:19:56.048Z,40.60
2023-04-01T21:22:37.795Z,40.38
2023-04-01T21:25:18.796Z,40.34
2023-04-01T21:27:56.732Z,40.21
2023-04-01T21:30:33.101Z,40.24
2023-04-01T21:33:08.413Z,40.66
2023-04-01T21:35:38.735Z,40.46
2023-04-01T21:38:12.267Z,40.71
2023-04-01T21:40:53.960Z,40.54
2023-04-01T21:43:33.107Z,40.65
2023-04-01T21:46:12.546Z,40.49
2023-04-01T21:48:47.955Z,40.75
2023-04-01T21:51:33.370Z,40.75
2023-04-01T21:54:20.345Z,40.43
2023-04-01T21:57:02.076Z,40.49
2023-04-01T21:59:47.089Z,40.44
2023-04-01T22:02:24.274Z,40.38
2023-04-01T22:04:54.779Z,40.53
2023-04-01T22:07:24.506Z,40.57
2023-04-01T22:09:59.299Z,40.28
2023-04-01T22:12:31.843Z,40.32
2023-04-01T22:15:02.485Z,40.39
2023-04-01T22:17:32.918Z,40.43
2023-04-01T22:20:04.411Z,40.55
2023-04-01T22:22:37.597Z,40.55
2023-04-01T22:25:08.629Z,40.65
2023-04-01T22:27:40.110Z,40.48
2023-04-01T22:30:16.177Z,40.50
2023-04-01T22:32:44.277Z,40.85
2023-04-01T22:35:18.851Z,40.66
2023-04-01T22:37:50.054Z,40.66
2023-04-01T22:40:22.117Z,40.39
2023-04-01T22:42:53.801Z,40.83
2023-04-01T22:45:40.966Z,40.44
2023-04-01T22:48:11.760Z,40.70
2023-04-01T22:50:41.501Z,40.52
2023-04-01T22:53:17.590Z,40.38
2023-04-01T22:55:53.002Z,40.48
2023-04-01T22:58:22.495Z,40.47
2023-04-01T23:00:53.487Z,40.53
2023-04-01T23:03:22.130Z,40.41
2023-04-01T23:05:51.667Z,40.62
2023-04-01T23:08:38.157Z,40.60
2023-04-01T23:11:05.919Z,40.70
2023-04-01T23:13:35.410Z,40.76
2023-04-01T23:16:03.803Z,40.70
2023-04-01T23:18:35.011Z,40.66
2023-04-01T23:21:07.262Z,40.75
2023-04-01T23:23:43.921Z,40.72
2023-04-01T23:26:15.243Z,40.78
2023-04-01T23:28:47.011Z,40.61
2023-04-01T23:31:28.537Z,40.72
2023-04-01T23:33:56.200Z,40.70
2023-04-01T23:36:23.326Z,40.45
2023-04-01T23:38:50.804Z,40.63
2023-04-01T23:41:19.669Z,40.61
2023-04-01T23:43:49.964Z,40.48
2023-04-01T23:46:17.052Z,40.53
2023-04-01T23:48:46.815Z,40.34
2023-04-01T23:51:15.071Z,40.54
2023-04-01T23:53:44.527Z,40.57
2023-04-01T23:56:11.356Z,40.52
2023-04-01T23:58:43.421Z,40.66
